Time;durP1;ratioP1;P1;durP2;ratioP2;P2;SDS_P1;SDS_P2;PMS_P1;PMS_P2;Temp;Humidity;BMP_temperature;BMP_pressure;BME280_temperature;BME280_humidity;BME280_pressure;Samples;Min_cycle;Max_cycle;Signal;HPM_P1;HPM_P2
2024/03/03 00:00:24;;;;;;;46.07;29.67;;;;;22.30;98873.00;;;;2054518;28;20225;-65
2024/03/03 00:01:24;;;;;;;41.72;26.20;;;;;22.30;98911.00;;;;2031563;29;20324;-65
2024/03/03 00:02:25;;;;;;;38.03;26.87;;;;;22.30;98913.00;;;;2027675;29;20220;-65
2024/03/03 00:03:25;;;;;;;40.40;28.20;;;;;22.30;98914.00;;;;2033155;28;20219;-65
2024/03/03 00:04:25;;;;;;;43.43;27.77;;;;;22.30;98903.00;;;;2054460;28;20223;-65
2024/03/03 00:05:26;;;;;;;40.63;27.67;;;;;22.30;98900.00;;;;2054707;28;20322;-65
2024/03/03 00:06:26;;;;;;;43.77;27.13;;;;;22.30;98909.00;;;;2055991;28;20219;-65
2024/03/03 00:07:26;;;;;;;39.90;25.93;;;;;22.20;98906.00;;;;2054134;28;20216;-65
2024/03/03 00:08:27;;;;;;;41.53;26.57;;;;;22.20;98906.00;;;;2046099;28;20223;-65
2024/03/03 00:09:27;;;;;;;41.40;27.07;;;;;22.20;98906.00;;;;2053831;28;20238;-66
2024/03/03 00:10:27;;;;;;;39.77;26.37;;;;;22.20;98901.00;;;;2051191;28;20238;-66
2024/03/03 00:11:28;;;;;;;37.03;25.83;;;;;22.20;98899.00;;;;2055995;28;20220;-66
2024/03/03 00:12:28;;;;;;;39.10;25.17;;;;;22.20;98897.00;;;;2054601;28;20676;-66
2024/03/03 00:13:29;;;;;;;36.80;25.73;;;;;22.20;98904.00;;;;2037542;28;20688;-66
2024/03/03 00:14:29;;;;;;;36.33;25.43;;;;;22.20;98896.00;;;;2046314;28;20676;-66
2024/03/03 00:15:30;;;;;;;39.13;26.30;;;;;22.20;98898.00;;;;2055728;28;20466;-66
2024/03/03 00:16:32;;;;;;;38.47;25.60;;;;;22.20;98893.00;;;;2055294;28;20972;-66
2024/03/03 00:17:33;;;;;;;39.70;24.85;;;;;22.20;98890.00;;;;2055576;28;20223;-66
2024/03/03 00:18:37;;;;;;;37.57;25.10;;;;;22.20;98894.00;;;;2046154;28;20217;-66
2024/03/03 00:19:40;;;;;;;39.53;23.77;;;;;22.20;98896.00;;;;2054890;28;20256;-66
2024/03/03 00:20:40;;;;;;;33.65;24.50;;;;;22.20;98887.00;;;;2055138;28;20211;-66
2024/03/03 00:21:40;;;;;;;37.00;23.73;;;;;22.20;98888.00;;;;2054657;28;20702;-66
2024/03/03 00:22:41;;;;;;;35.77;23.90;;;;;22.20;98892.00;;;;2055939;28;20739;-66
2024/03/03 00:23:41;;;;;;;33.43;22.90;;;;;22.20;98874.00;;;;2045148;28;20584;-66
2024/03/03 00:24:41;;;;;;;37.67;24.87;;;;;22.20;98879.00;;;;2053496;28;20746;-66
2024/03/03 00:25:42;;;;;;;34.50;22.77;;;;;22.20;98887.00;;;;2055609;28;20203;-66
2024/03/03 00:26:42;;;;;;;34.17;23.57;;;;;22.20;98888.00;;;;2053607;28;20234;-66
2024/03/03 00:27:43;;;;;;;33.07;21.33;;;;;22.20;98867.00;;;;2055263;28;20262;-66
2024/03/03 00:28:43;;;;;;;30.53;22.70;;;;;22.20;98881.00;;;;2043082;28;21077;-66
2024/03/03 00:29:43;;;;;;;32.03;21.93;;;;;22.20;98868.00;;;;2047176;28;20209;-65
2024/03/03 00:30:44;;;;;;;31.00;21.80;;;;;22.20;98875.00;;;;2046419;28;20208;-65
2024/03/03 00:31:45;;;;;;;32.87;22.40;;;;;22.20;98871.00;;;;2054434;28;20234;-65
2024/03/03 00:32:45;;;;;;;32.17;22.30;;;;;22.20;98856.00;;;;2055696;28;20935;-65
2024/03/03 00:33:46;;;;;;;32.63;22.73;;;;;22.20;98869.00;;;;2044999;28;20558;-65
2024/03/03 00:34:46;;;;;;;32.67;21.37;;;;;22.20;98863.00;;;;2055405;28;20211;-65
2024/03/03 00:35:46;;;;;;;32.63;20.43;;;;;22.20;98868.00;;;;2053850;28;20216;-65
2024/03/03 00:36:46;;;;;;;31.33;21.43;;;;;22.10;98863.00;;;;2055811;28;20270;-65
2024/03/03 00:37:47;;;;;;;32.30;21.30;;;;;22.20;98842.00;;;;2055125;28;20222;-65
2024/03/03 00:38:47;;;;;;;34.40;22.13;;;;;22.10;98870.00;;;;2044774;28;21735;-66
2024/03/03 00:39:47;;;;;;;31.23;20.37;;;;;22.20;98864.00;;;;2055710;28;20226;-66
2024/03/03 00:40:48;;;;;;;31.07;21.33;;;;;22.20;98862.00;;;;2054383;28;20223;-66
2024/03/03 00:41:48;;;;;;;31.50;21.37;;;;;22.10;98871.00;;;;2055775;28;20223;-66
2024/03/03 00:42:48;;;;;;;34.60;21.80;;;;;22.20;98855.00;;;;2053763;28;20262;-66
2024/03/03 00:43:49;;;;;;;30.00;20.27;;;;;22.10;98871.00;;;;2043955;28;20219;-66
2024/03/03 00:44:49;;;;;;;31.20;20.67;;;;;22.10;98861.00;;;;2054757;28;20220;-66
2024/03/03 00:45:49;;;;;;;30.50;19.90;;;;;22.20;98852.00;;;;2054808;28;20219;-66
2024/03/03 00:46:50;;;;;;;30.60;20.57;;;;;22.10;98865.00;;;;2055795;28;20223;-66
2024/03/03 00:47:50;;;;;;;27.07;19.43;;;;;22.20;98859.00;;;;2046213;28;20226;-66
2024/03/03 00:48:50;;;;;;;29.17;20.57;;;;;22.10;98865.00;;;;2037522;28;20212;-66
2024/03/03 00:49:51;;;;;;;27.80;18.30;;;;;22.10;98859.00;;;;2055276;28;20270;-66
2024/03/03 00:50:51;;;;;;;29.13;19.33;;;;;22.10;98858.00;;;;2054744;28;20227;-66
2024/03/03 00:51:51;;;;;;;28.10;19.70;;;;;22.10;98860.00;;;;2055851;28;20653;-66
2024/03/03 00:52:54;;;;;;;30.37;19.50;;;;;22.10;98851.00;;;;2050461;28;20216;-66
2024/03/03 00:53:54;;;;;;;29.05;19.15;;;;;22.10;98858.00;;;;2044251;28;20207;-66
2024/03/03 00:54:56;;;;;;;27.13;18.20;;;;;22.10;98859.00;;;;2046172;28;20225;-66
2024/03/03 00:55:57;;;;;;;29.95;21.23;;;;;22.10;98847.00;;;;2046640;28;20290;-66
2024/03/03 00:56:57;;;;;;;30.80;19.63;;;;;22.10;98847.00;;;;2055271;28;20222;-66
2024/03/03 00:57:58;;;;;;;26.67;19.40;;;;;22.10;98851.00;;;;2048055;28;20231;-66
2024/03/03 00:58:58;;;;;;;25.90;18.07;;;;;22.10;98847.00;;;;2045304;28;20261;-66
2024/03/03 00:59:59;;;;;;;25.23;17.00;;;;;22.10;98848.00;;;;2051150;28;20458;-66
2024/03/03 01:00:59;;;;;;;24.30;17.50;;;;;22.10;98854.00;;;;2055219;28;20208;-66
2024/03/03 01:01:59;;;;;;;25.57;16.93;;;;;22.10;98850.00;;;;2054267;28;20207;-66
2024/03/03 01:03:00;;;;;;;25.70;17.33;;;;;22.10;98848.00;;;;2055630;28;20215;-66
2024/03/03 01:04:00;;;;;;;25.53;17.63;;;;;22.10;98847.00;;;;2045375;28;20258;-66
2024/03/03 01:05:00;;;;;;;23.27;17.97;;;;;22.10;98840.00;;;;2054551;28;20222;-66
2024/03/03 01:06:01;;;;;;;25.27;17.20;;;;;22.10;98843.00;;;;2055444;28;20218;-66
2024/03/03 01:07:01;;;;;;;22.80;16.77;;;;;22.10;98840.00;;;;2053837;28;20208;-66
2024/03/03 01:08:02;;;;;;;22.93;16.13;;;;;21.80;98843.00;;;;2046908;28;20764;-66
2024/03/03 01:09:02;;;;;;;24.80;15.97;;;;;22.10;98836.00;;;;2034423;28;20717;-66
2024/03/03 01:10:04;;;;;;;23.57;17.00;;;;;22.00;98841.00;;;;2054982;28;20546;-66
2024/03/03 01:11:04;;;;;;;28.00;17.70;;;;;22.00;98846.00;;;;2055584;28;20283;-66
2024/03/03 01:12:05;;;;;;;24.37;16.60;;;;;22.00;98850.00;;;;2054465;28;20223;-66
2024/03/03 01:13:05;;;;;;;25.03;16.23;;;;;22.00;98855.00;;;;2055511;28;20227;-66
2024/03/03 01:14:06;;;;;;;25.80;16.73;;;;;22.10;98850.00;;;;2044925;28;20211;-66
2024/03/03 01:15:06;;;;;;;24.80;16.07;;;;;22.00;98848.00;;;;2055259;28;20259;-66
2024/03/03 01:16:07;;;;;;;20.97;15.47;;;;;22.00;98848.00;;;;2054637;28;20286;-66
2024/03/03 01:17:07;;;;;;;22.40;15.10;;;;;22.00;98861.00;;;;2055486;28;20710;-66
2024/03/03 01:18:08;;;;;;;25.73;16.40;;;;;22.00;98862.00;;;;2055465;28;20295;-66
2024/03/03 01:19:08;;;;;;;24.43;15.80;;;;;22.00;98849.00;;;;2045048;28;20222;-66
2024/03/03 01:20:08;;;;;;;21.37;15.17;;;;;22.00;98850.00;;;;2055610;28;20234;-66
2024/03/03 01:21:09;;;;;;;22.97;14.60;;;;;22.00;98850.00;;;;2053487;28;20274;-66
2024/03/03 01:22:09;;;;;;;24.77;16.30;;;;;22.00;98850.00;;;;2055494;28;20251;-66
2024/03/03 01:23:11;;;;;;;23.70;15.97;;;;;22.00;98846.00;;;;2054767;28;20211;-66
2024/03/03 01:24:11;;;;;;;21.10;13.98;;;;;22.00;98839.00;;;;2038955;28;20219;-66
2024/03/03 01:25:12;;;;;;;21.07;14.30;;;;;22.00;98839.00;;;;2052670;28;20318;-65
2024/03/03 01:26:12;;;;;;;22.63;14.87;;;;;22.00;98844.00;;;;2052541;28;20715;-65
2024/03/03 01:27:12;;;;;;;22.57;14.17;;;;;22.00;98841.00;;;;2054937;28;20699;-65
2024/03/03 01:28:13;;;;;;;21.37;14.47;;;;;22.00;98846.00;;;;2052167;28;20703;-65
2024/03/03 01:29:15;;;;;;;22.47;14.53;;;;;22.00;98847.00;;;;2041039;28;20224;-65
2024/03/03 01:30:15;;;;;;;24.40;15.60;;;;;22.00;98839.00;;;;2054567;28;20294;-65
2024/03/03 01:31:15;;;;;;;21.73;14.00;;;;;22.00;98836.00;;;;2054700;28;20208;-65
2024/03/03 01:32:16;;;;;;;21.73;14.13;;;;;22.00;98842.00;;;;2055400;28;20259;-65
2024/03/03 01:33:16;;;;;;;22.97;14.70;;;;;22.00;98838.00;;;;2044359;28;20290;-65
2024/03/03 01:34:16;;;;;;;19.80;12.97;;;;;22.00;98846.00;;;;2046526;28;20263;-65
2024/03/03 01:35:17;;;;;;;18.20;12.93;;;;;22.00;98840.00;;;;2046039;28;20208;-65
2024/03/03 01:36:17;;;;;;;24.50;14.63;;;;;22.00;98844.00;;;;2055368;28;20715;-65
2024/03/03 01:37:18;;;;;;;20.40;13.90;;;;;22.00;98844.00;;;;2055336;28;20560;-65
2024/03/03 01:38:18;;;;;;;20.47;13.20;;;;;22.00;98849.00;;;;2045374;28;20204;-65
2024/03/03 01:39:18;;;;;;;19.70;13.10;;;;;22.00;98846.00;;;;2056640;28;23985;-65
2024/03/03 01:40:19;;;;;;;19.63;13.50;;;;;22.00;98844.00;;;;2053140;28;20668;-65
2024/03/03 01:41:20;;;;;;;19.67;14.03;;;;;22.00;98845.00;;;;2057018;28;20285;-65
2024/03/03 01:42:20;;;;;;;20.10;12.63;;;;;21.90;98839.00;;;;2056397;28;20215;-65
2024/03/03 01:43:20;;;;;;;20.90;14.03;;;;;22.00;98844.00;;;;2047060;28;20230;-65
2024/03/03 01:44:21;;;;;;;18.97;12.50;;;;;21.90;98837.00;;;;2055939;28;20247;-65
2024/03/03 01:45:22;;;;;;;19.13;12.83;;;;;22.00;98834.00;;;;2055648;28;20215;-65
2024/03/03 01:46:23;;;;;;;21.67;13.77;;;;;21.90;98830.00;;;;2056861;28;20494;-65
2024/03/03 01:47:23;;;;;;;19.10;12.90;;;;;21.90;98830.00;;;;2055971;28;20239;-65
2024/03/03 01:48:24;;;;;;;19.47;13.97;;;;;21.90;98826.00;;;;2045156;28;20215;-65
2024/03/03 01:49:24;;;;;;;19.80;12.80;;;;;22.00;98828.00;;;;2047424;28;20227;-65
2024/03/03 01:50:24;;;;;;;18.03;11.90;;;;;21.90;98828.00;;;;2046481;28;20600;-65
2024/03/03 01:51:25;;;;;;;17.97;12.30;;;;;21.90;98768.00;;;;2048237;28;20550;-65
2024/03/03 01:52:25;;;;;;;18.57;11.50;;;;;21.90;98813.00;;;;2047897;28;20233;-66
2024/03/03 01:53:26;;;;;;;16.57;11.03;;;;;21.90;98833.00;;;;2033640;28;20220;-66
2024/03/03 01:54:26;;;;;;;19.27;12.37;;;;;21.90;98771.00;;;;2047615;28;20223;-65
2024/03/03 01:55:27;;;;;;;18.70;11.87;;;;;21.90;98838.00;;;;2055280;28;20287;-65
2024/03/03 01:56:28;;;;;;;17.40;12.53;;;;;21.90;98839.00;;;;2056195;28;20599;-65
2024/03/03 01:57:29;;;;;;;20.00;12.63;;;;;21.90;98777.00;;;;2047995;28;20310;-65
2024/03/03 01:58:29;;;;;;;18.00;11.20;;;;;21.90;98841.00;;;;2038270;28;20224;-65
2024/03/03 01:59:29;;;;;;;18.33;12.33;;;;;21.90;98851.00;;;;2047796;28;20319;-65
2024/03/03 02:00:33;;;;;;;16.23;11.03;;;;;21.90;98846.00;;;;2048371;28;20217;-65
2024/03/03 02:01:33;;;;;;;14.63;10.75;;;;;21.90;98833.00;;;;2046544;28;20262;-65
2024/03/03 02:02:33;;;;;;;15.83;10.67;;;;;21.90;98829.00;;;;2056916;28;20809;-65
2024/03/03 02:03:33;;;;;;;16.90;11.20;;;;;21.90;98836.00;;;;2046612;28;20279;-65
2024/03/03 02:04:34;;;;;;;15.10;10.80;;;;;21.90;98827.00;;;;2055323;28;21019;-65
2024/03/03 02:05:35;;;;;;;16.10;11.10;;;;;21.90;98837.00;;;;2056863;28;20629;-65
2024/03/03 02:06:36;;;;;;;15.10;10.88;;;;;21.90;98828.00;;;;2054258;28;20207;-65
2024/03/03 02:07:36;;;;;;;16.73;11.20;;;;;21.90;98841.00;;;;2054319;28;20604;-65
2024/03/03 02:08:36;;;;;;;15.53;10.60;;;;;21.90;98838.00;;;;2044739;28;20734;-65
2024/03/03 02:09:37;;;;;;;16.27;10.83;;;;;21.90;98833.00;;;;2047579;28;20208;-65
2024/03/03 02:10:37;;;;;;;19.20;11.70;;;;;21.90;98831.00;;;;2048106;28;20319;-65
2024/03/03 02:11:38;;;;;;;17.23;11.10;;;;;21.90;98824.00;;;;2053353;28;20242;-65
2024/03/03 02:12:40;;;;;;;15.20;11.00;;;;;21.90;98831.00;;;;2056744;28;20459;-65
2024/03/03 02:13:40;;;;;;;13.05;9.32;;;;;21.90;98825.00;;;;2045582;28;20579;-66
2024/03/03 02:14:41;;;;;;;15.13;10.00;;;;;21.90;98831.00;;;;2053470;28;20215;-66
2024/03/03 02:15:41;;;;;;;16.43;11.00;;;;;21.90;98834.00;;;;2056664;28;20234;-66
2024/03/03 02:16:42;;;;;;;16.23;10.53;;;;;21.90;98826.00;;;;2052778;28;20212;-66
2024/03/03 02:17:42;;;;;;;14.53;9.77;;;;;21.90;98820.00;;;;2048179;28;20640;-66
2024/03/03 02:18:43;;;;;;;13.13;9.43;;;;;21.90;98824.00;;;;2036919;28;20246;-66
2024/03/03 02:19:43;;;;;;;15.23;9.73;;;;;21.90;98830.00;;;;2056663;28;20759;-66
2024/03/03 02:20:43;;;;;;;13.80;9.60;;;;;21.90;98823.00;;;;2054745;28;20979;-66
2024/03/03 02:21:44;;;;;;;14.03;8.60;;;;;21.80;98820.00;;;;2053883;28;20215;-66
2024/03/03 02:22:44;;;;;;;15.40;9.43;;;;;21.80;98822.00;;;;2056661;28;20215;-66
2024/03/03 02:23:45;;;;;;;14.37;9.80;;;;;21.80;98819.00;;;;2044366;28;20680;-66
2024/03/03 02:24:45;;;;;;;14.73;9.53;;;;;21.80;98824.00;;;;2057652;28;20733;-66
2024/03/03 02:25:45;;;;;;;14.60;9.80;;;;;21.80;98821.00;;;;2052231;28;20208;-66
2024/03/03 02:26:46;;;;;;;13.43;9.47;;;;;21.90;98820.00;;;;2054218;28;20671;-66
2024/03/03 02:27:46;;;;;;;13.70;9.60;;;;;21.80;98821.00;;;;2055852;28;20211;-66
2024/03/03 02:28:46;;;;;;;15.70;9.73;;;;;21.80;98826.00;;;;2046248;28;20231;-66
2024/03/03 02:29:46;;;;;;;13.07;8.97;;;;;21.80;98824.00;;;;2046495;28;20208;-66
2024/03/03 02:30:47;;;;;;;13.43;9.00;;;;;21.80;98815.00;;;;2047279;28;20209;-66
2024/03/03 02:31:49;;;;;;;12.30;8.60;;;;;21.80;98826.00;;;;2054655;28;20277;-66
2024/03/03 02:32:50;;;;;;;13.02;8.50;;;;;21.80;98830.00;;;;2055812;28;20230;-66
2024/03/03 02:33:50;;;;;;;13.13;9.13;;;;;21.80;98833.00;;;;2044969;28;20247;-66
2024/03/03 02:34:50;;;;;;;12.70;8.90;;;;;21.80;98819.00;;;;2055104;28;20254;-65
2024/03/03 02:35:51;;;;;;;12.63;8.90;;;;;21.80;98826.00;;;;2054267;28;20234;-65
2024/03/03 02:36:51;;;;;;;12.23;8.40;;;;;21.80;98826.00;;;;2055141;28;20215;-65
2024/03/03 02:37:51;;;;;;;12.13;8.07;;;;;21.80;98826.00;;;;2055591;28;20212;-65
2024/03/03 02:38:52;;;;;;;14.20;8.83;;;;;21.80;98809.00;;;;2046783;28;20230;-66
2024/03/03 02:39:52;;;;;;;14.13;9.40;;;;;21.80;98819.00;;;;2055012;28;20208;-66
2024/03/03 02:40:52;;;;;;;12.87;7.80;;;;;21.80;98824.00;;;;2056664;28;20228;-66
2024/03/03 02:41:53;;;;;;;12.07;8.00;;;;;21.80;98823.00;;;;2056101;28;20259;-66
2024/03/03 02:42:53;;;;;;;13.23;8.77;;;;;21.80;98821.00;;;;2055033;28;20234;-66
2024/03/03 02:43:53;;;;;;;11.73;8.90;;;;;21.80;98818.00;;;;2045946;28;20577;-66
2024/03/03 02:44:54;;;;;;;11.13;7.63;;;;;21.80;98824.00;;;;2054681;28;20607;-66
2024/03/03 02:45:54;;;;;;;13.53;8.50;;;;;21.80;98821.00;;;;2054637;28;20230;-66
2024/03/03 02:46:54;;;;;;;12.00;8.20;;;;;21.80;98813.00;;;;2053373;28;20212;-66
2024/03/03 02:47:56;;;;;;;14.17;8.20;;;;;21.80;98817.00;;;;2056460;28;20218;-66
2024/03/03 02:48:56;;;;;;;11.02;7.15;;;;;21.80;98820.00;;;;2046521;28;20223;-66
2024/03/03 02:49:57;;;;;;;13.87;8.43;;;;;21.80;98822.00;;;;2053939;28;20219;-66
2024/03/03 02:50:57;;;;;;;12.43;8.00;;;;;21.80;98768.00;;;;2054977;28;20242;-66
2024/03/03 02:51:58;;;;;;;11.50;7.67;;;;;21.80;98823.00;;;;2054629;28;20219;-66
2024/03/03 02:52:58;;;;;;;10.80;7.40;;;;;21.80;98818.00;;;;2056600;28;20223;-66
2024/03/03 02:53:58;;;;;;;11.77;7.63;;;;;21.80;98821.00;;;;2045185;28;20223;-66
2024/03/03 02:54:59;;;;;;;9.37;7.07;;;;;21.80;98829.00;;;;2053885;28;20251;-66
2024/03/03 02:55:59;;;;;;;13.40;7.70;;;;;21.80;98840.00;;;;2054927;28;20557;-66
2024/03/03 02:56:59;;;;;;;11.00;7.73;;;;;21.80;98838.00;;;;2051098;28;20676;-66
2024/03/03 02:58:00;;;;;;;11.57;7.20;;;;;21.80;98837.00;;;;2056043;28;20219;-66
2024/03/03 02:59:00;;;;;;;10.70;7.20;;;;;21.80;98837.00;;;;2045206;28;20239;-66
2024/03/03 03:00:01;;;;;;;10.90;7.03;;;;;21.80;98837.00;;;;2056237;28;20215;-66
2024/03/03 03:01:01;;;;;;;9.40;7.17;;;;;21.80;98842.00;;;;2056405;28;20216;-66
2024/03/03 03:02:09;;;;;;;11.87;7.20;;;;;21.70;98841.00;;;;2055720;28;20223;-66
2024/03/03 03:03:19;;;;;;;13.13;7.70;;;;;21.70;98827.00;;;;2024960;29;20214;-66
2024/03/03 03:04:20;;;;;;;9.38;6.80;;;;;21.80;98853.00;;;;2018438;29;20242;-66
2024/03/03 03:05:20;;;;;;;9.43;6.20;;;;;21.70;98858.00;;;;2039975;29;20289;-66
2024/03/03 03:06:20;;;;;;;9.37;6.80;;;;;21.80;98850.00;;;;2054872;28;20275;-66
2024/03/03 03:07:21;;;;;;;11.30;7.20;;;;;21.80;98849.00;;;;2052895;28;20997;-66
2024/03/03 03:08:21;;;;;;;10.57;7.20;;;;;21.70;98842.00;;;;2046746;28;20235;-66
2024/03/03 03:09:22;;;;;;;9.50;6.83;;;;;21.70;98831.00;;;;2055320;28;20286;-65
2024/03/03 03:10:22;;;;;;;12.10;7.43;;;;;21.70;98831.00;;;;2056055;28;20295;-65
2024/03/03 03:11:24;;;;;;;9.80;7.00;;;;;21.70;98836.00;;;;2055853;28;20467;-65
2024/03/03 03:12:24;;;;;;;10.25;6.70;;;;;21.70;98838.00;;;;2056376;28;20230;-65
2024/03/03 03:13:25;;;;;;;9.47;6.10;;;;;21.70;98783.00;;;;2036582;28;20647;-65
2024/03/03 03:14:25;;;;;;;9.83;6.27;;;;;21.70;98845.00;;;;2047579;28;20569;-65
2024/03/03 03:15:25;;;;;;;9.30;6.60;;;;;21.70;98844.00;;;;2054235;28;20646;-65
2024/03/03 03:16:26;;;;;;;9.07;6.20;;;;;21.70;98841.00;;;;2055099;28;20242;-65
2024/03/03 03:17:26;;;;;;;8.60;6.37;;;;;21.70;98847.00;;;;2056361;28;20219;-65
2024/03/03 03:18:26;;;;;;;9.93;5.80;;;;;21.70;98841.00;;;;2045746;28;20309;-66
2024/03/03 03:19:30;;;;;;;9.33;7.10;;;;;21.70;98841.00;;;;2056143;28;20586;-66
2024/03/03 03:20:30;;;;;;;9.77;6.20;;;;;21.70;98831.00;;;;2055392;28;20610;-66
2024/03/03 03:21:30;;;;;;;10.17;6.63;;;;;21.70;98830.00;;;;2055601;28;20227;-66
2024/03/03 03:22:31;;;;;;;10.10;6.83;;;;;21.70;98830.00;;;;2055581;28;20231;-66
2024/03/03 03:23:31;;;;;;;9.63;5.50;;;;;21.70;98825.00;;;;2045306;28;20224;-66
2024/03/03 03:24:31;;;;;;;11.07;6.63;;;;;21.70;98827.00;;;;2053874;28;20224;-66
2024/03/03 03:25:32;;;;;;;9.47;5.93;;;;;21.70;98824.00;;;;2053851;28;20224;-66
2024/03/03 03:26:32;;;;;;;9.43;5.80;;;;;21.70;98823.00;;;;2046982;28;20223;-66
2024/03/03 03:27:33;;;;;;;8.47;6.10;;;;;21.70;98830.00;;;;2055517;28;20223;-66
2024/03/03 03:28:33;;;;;;;10.70;6.40;;;;;21.70;98829.00;;;;2039535;28;20224;-66
2024/03/03 03:29:34;;;;;;;12.13;6.80;;;;;21.70;98827.00;;;;2056056;28;20277;-66
2024/03/03 03:30:34;;;;;;;9.00;6.13;;;;;21.70;98819.00;;;;2055028;28;20224;-66
2024/03/03 03:31:34;;;;;;;9.13;5.70;;;;;21.70;98825.00;;;;2053059;28;20222;-66
2024/03/03 03:32:34;;;;;;;7.53;5.43;;;;;21.70;98822.00;;;;2055129;28;20255;-66
2024/03/03 03:33:35;;;;;;;10.40;6.07;;;;;21.70;98826.00;;;;2045068;28;20235;-66
2024/03/03 03:34:35;;;;;;;8.20;5.33;;;;;21.70;98826.00;;;;2055838;28;20394;-66
2024/03/03 03:35:36;;;;;;;7.57;5.27;;;;;21.70;98819.00;;;;2054500;28;20220;-66
2024/03/03 03:36:36;;;;;;;9.03;5.50;;;;;21.70;98820.00;;;;2056139;28;20267;-66
2024/03/03 03:37:37;;;;;;;8.37;5.80;;;;;21.70;98819.00;;;;2053964;28;20212;-66
2024/03/03 03:38:37;;;;;;;7.07;5.13;;;;;21.70;98822.00;;;;2045850;28;20623;-66
2024/03/03 03:39:38;;;;;;;8.63;5.43;;;;;21.70;98816.00;;;;2047192;28;20263;-66
2024/03/03 03:40:38;;;;;;;7.73;5.90;;;;;21.70;98819.00;;;;2044252;28;20292;-66
2024/03/03 03:41:45;;;;;;;7.13;4.77;;;;;21.70;98812.00;;;;2054780;28;20486;-66
2024/03/03 03:42:46;;;;;;;9.63;5.60;;;;;21.70;98809.00;;;;2054923;28;20239;-65
2024/03/03 03:43:47;;;;;;;8.60;5.37;;;;;21.70;98813.00;;;;2045927;28;20219;-65
2024/03/03 03:44:47;;;;;;;7.80;4.73;;;;;21.60;98810.00;;;;2055836;28;20216;-65
2024/03/03 03:45:47;;;;;;;8.10;5.20;;;;;21.60;98800.00;;;;2055246;28;20620;-65
2024/03/03 03:46:48;;;;;;;8.57;4.93;;;;;21.70;98804.00;;;;2055537;28;20223;-65
2024/03/03 03:47:48;;;;;;;9.30;5.43;;;;;21.60;98808.00;;;;2055335;28;20753;-65
2024/03/03 03:48:48;;;;;;;8.40;5.13;;;;;21.70;98805.00;;;;2046330;28;20270;-65
2024/03/03 03:49:49;;;;;;;7.53;5.40;;;;;21.60;98799.00;;;;2050945;28;20237;-65
2024/03/03 03:50:49;;;;;;;6.90;4.90;;;;;21.60;98795.00;;;;2053411;28;20208;-65
2024/03/03 03:51:49;;;;;;;8.50;5.17;;;;;21.60;98803.00;;;;2054812;28;20242;-65
2024/03/03 03:52:50;;;;;;;8.10;5.50;;;;;21.60;98801.00;;;;2055988;28;20207;-65
2024/03/03 03:53:50;;;;;;;8.00;5.27;;;;;21.60;98796.00;;;;2046106;28;20218;-65
2024/03/03 03:54:50;;;;;;;6.90;4.40;;;;;21.60;98796.00;;;;2055169;28;20208;-65
2024/03/03 03:55:51;;;;;;;8.30;5.27;;;;;21.60;98794.00;;;;2055937;28;20215;-65
2024/03/03 03:56:51;;;;;;;6.67;5.27;;;;;21.70;98798.00;;;;2054828;28;20570;-65
2024/03/03 03:57:51;;;;;;;7.87;5.20;;;;;21.60;98798.00;;;;2047340;28;20758;-65
2024/03/03 03:58:52;;;;;;;7.63;5.20;;;;;21.60;98805.00;;;;2034769;28;20220;-65
2024/03/03 03:59:52;;;;;;;7.70;5.00;;;;;21.60;98807.00;;;;2053941;28;20300;-65
2024/03/03 04:00:52;;;;;;;7.33;4.63;;;;;21.70;98817.00;;;;2056037;28;20211;-65
2024/03/03 04:01:54;;;;;;;6.40;4.93;;;;;21.60;98809.00;;;;2054229;28;20219;-65
2024/03/03 04:02:55;;;;;;;7.85;4.97;;;;;21.60;98818.00;;;;2055126;28;20207;-65
2024/03/03 04:03:55;;;;;;;6.90;4.83;;;;;21.60;98823.00;;;;2044597;28;20227;-65
2024/03/03 04:04:57;;;;;;;8.40;4.50;;;;;21.60;98823.00;;;;2055102;28;20627;-65
2024/03/03 04:05:57;;;;;;;6.28;4.13;;;;;21.70;98816.00;;;;2041274;28;20220;-65
2024/03/03 04:06:57;;;;;;;7.23;4.77;;;;;21.60;98827.00;;;;2045934;28;20311;-65
2024/03/03 04:07:58;;;;;;;6.77;4.50;;;;;21.60;98828.00;;;;2053898;28;20238;-65
2024/03/03 04:09:00;;;;;;;7.43;4.63;;;;;21.60;98826.00;;;;2045094;28;20219;-65
2024/03/03 04:10:01;;;;;;;6.70;4.38;;;;;21.60;98828.00;;;;2055214;28;20211;-65
2024/03/03 04:11:01;;;;;;;7.97;5.23;;;;;21.60;98825.00;;;;2043855;28;20255;-65
2024/03/03 04:12:03;;;;;;;7.47;4.90;;;;;21.60;98824.00;;;;2044792;28;20263;-65
2024/03/03 04:13:03;;;;;;;6.28;4.13;;;;;21.60;98828.00;;;;2053849;28;20297;-65
2024/03/03 04:14:04;;;;;;;8.33;4.30;;;;;21.60;98837.00;;;;2045406;28;20216;-65
2024/03/03 04:15:04;;;;;;;6.47;4.30;;;;;21.60;98833.00;;;;2062011;28;20632;-65
2024/03/03 04:16:08;;;;;;;7.23;4.60;;;;;21.60;98843.00;;;;2054098;28;20718;-65
2024/03/03 04:17:08;;;;;;;6.72;4.18;;;;;21.60;98839.00;;;;2055021;28;20629;-65
2024/03/03 04:18:08;;;;;;;7.10;4.13;;;;;21.60;98843.00;;;;2054494;28;20220;-65
2024/03/03 04:19:09;;;;;;;5.60;3.77;;;;;21.60;98756.00;;;;2046128;28;20247;-65
2024/03/03 04:20:10;;;;;;;5.87;4.50;;;;;21.60;98836.00;;;;2054488;28;20215;-65
2024/03/03 04:21:10;;;;;;;6.50;4.25;;;;;21.60;98830.00;;;;2047454;28;20619;-65
2024/03/03 04:22:10;;;;;;;6.73;4.60;;;;;21.60;98839.00;;;;2049362;28;20216;-65
2024/03/03 04:23:11;;;;;;;6.57;4.93;;;;;21.60;98836.00;;;;2048445;28;20267;-65
2024/03/03 04:24:11;;;;;;;7.47;4.83;;;;;21.60;98837.00;;;;2037558;28;20220;-65
2024/03/03 04:25:12;;;;;;;5.70;3.93;;;;;21.60;98840.00;;;;2045053;28;20259;-65
2024/03/03 04:26:12;;;;;;;5.73;4.00;;;;;21.60;98842.00;;;;2055811;28;20227;-65
2024/03/03 04:27:12;;;;;;;6.37;3.97;;;;;21.60;98845.00;;;;2053685;28;20215;-65
2024/03/03 04:28:13;;;;;;;7.00;4.70;;;;;21.60;98857.00;;;;2054132;28;20683;-65
2024/03/03 04:29:14;;;;;;;7.27;4.50;;;;;21.60;98854.00;;;;2045459;28;20756;-65
2024/03/03 04:30:14;;;;;;;7.20;3.92;;;;;21.60;98852.00;;;;2054607;28;20219;-65
2024/03/03 04:31:14;;;;;;;7.07;4.10;;;;;21.60;98780.00;;;;2055644;28;20224;-65
2024/03/03 04:32:15;;;;;;;6.50;4.33;;;;;21.60;98854.00;;;;2054327;28;20226;-65
2024/03/03 04:33:15;;;;;;;6.27;4.57;;;;;21.60;98854.00;;;;2035011;28;20212;-65
2024/03/03 04:34:15;;;;;;;6.53;4.43;;;;;21.60;98849.00;;;;2047052;28;20214;-65
2024/03/03 04:35:16;;;;;;;5.37;3.67;;;;;21.60;98847.00;;;;2049489;28;20701;-65
2024/03/03 04:36:16;;;;;;;5.67;4.00;;;;;21.50;98861.00;;;;2054208;28;20226;-65
2024/03/03 04:37:17;;;;;;;6.03;3.80;;;;;21.50;98856.00;;;;2054148;28;21192;-65
2024/03/03 04:38:17;;;;;;;6.03;4.03;;;;;21.60;98854.00;;;;2045956;28;20217;-65
2024/03/03 04:39:17;;;;;;;5.00;3.70;;;;;21.60;98854.00;;;;2054703;28;20213;-65
2024/03/03 04:40:18;;;;;;;6.20;3.67;;;;;21.60;98852.00;;;;2055211;28;20623;-65
2024/03/03 04:41:19;;;;;;;6.33;4.20;;;;;21.50;98855.00;;;;2055713;28;20695;-65
2024/03/03 04:42:19;;;;;;;6.90;3.95;;;;;21.60;98854.00;;;;2054162;28;20606;-66
2024/03/03 04:43:19;;;;;;;4.97;3.73;;;;;21.50;98858.00;;;;2045854;28;20242;-66
2024/03/03 04:44:20;;;;;;;5.60;3.83;;;;;21.50;98859.00;;;;2043556;28;20227;-66
2024/03/03 04:45:21;;;;;;;6.00;3.93;;;;;21.50;98862.00;;;;2047073;28;20216;-66
2024/03/03 04:46:21;;;;;;;5.20;3.90;;;;;21.50;98862.00;;;;2048376;28;20254;-66
2024/03/03 04:47:21;;;;;;;5.70;3.60;;;;;21.50;98866.00;;;;2054132;28;20458;-66
2024/03/03 04:48:22;;;;;;;5.53;3.53;;;;;21.50;98867.00;;;;2045845;28;20219;-66
2024/03/03 04:49:23;;;;;;;5.23;3.60;;;;;21.50;98864.00;;;;2053080;28;20721;-66
2024/03/03 04:50:23;;;;;;;6.07;3.80;;;;;21.50;98867.00;;;;2055415;28;21002;-66
2024/03/03 04:51:23;;;;;;;6.33;3.83;;;;;21.50;98865.00;;;;2054039;28;20227;-66
2024/03/03 04:52:24;;;;;;;5.37;3.87;;;;;21.50;98872.00;;;;2054902;28;20251;-66
2024/03/03 04:53:24;;;;;;;4.87;3.40;;;;;21.50;98872.00;;;;2045686;28;20323;-66
2024/03/03 04:54:24;;;;;;;5.13;3.70;;;;;21.50;98868.00;;;;2045920;28;20223;-66
2024/03/03 04:55:25;;;;;;;5.33;3.13;;;;;21.50;98873.00;;;;2046812;28;20220;-66
2024/03/03 04:56:28;;;;;;;4.93;3.40;;;;;21.50;98877.00;;;;2050952;28;20224;-66
2024/03/03 04:57:30;;;;;;;4.78;3.20;;;;;21.50;98867.00;;;;2048490;28;20290;-66
2024/03/03 04:58:30;;;;;;;5.10;3.25;;;;;21.50;98871.00;;;;2045132;28;20571;-66
2024/03/03 04:59:31;;;;;;;5.90;3.77;;;;;21.50;98876.00;;;;2050475;28;20233;-66